sensor_id;sensor_type;location;lat;lon;timestamp;pressure;altitude;pressure_sealevel;temperature;humidity
13968;BME280;39536;52.198;9.920;2024-01-11T00:02:11;102376.56;;;-5.43;100.00
13968;BME280;39536;52.198;9.920;2024-01-11T00:04:38;102364.88;;;-5.54;100.00
13968;BME280;39536;52.198;9.920;2024-01-11T00:07:05;102370.66;;;-5.57;100.00
13968;BME280;39536;52.198;9.920;2024-01-11T00:09:44;102362.66;;;-5.63;100.00
13968;BME280;39536;52.198;9.920;2024-01-11T00:12:52;102362.34;;;-5.68;100.00
13968;BME280;39536;52.198;9.920;2024-01-11T00:15:29;102369.69;;;-5.72;100.00
13968;BME280;39536;52.198;9.920;2024-01-11T00:18:03;102376.09;;;-5.64;100.00
13968;BME280;39536;52.198;9.920;2024-01-11T00:20:50;102376.91;;;-5.65;100.00
13968;BME280;39536;52.198;9.920;2024-01-11T00:23:29;102373.47;;;-5.52;100.00
13968;BME280;39536;52.198;9.920;2024-01-11T00:26:30;102386.91;;;-5.40;100.00
13968;BME280;39536;52.198;9.920;2024-01-11T00:29:17;102379.22;;;-5.42;100.00
13968;BME280;39536;52.198;9.920;2024-01-11T00:31:53;102376.56;;;-5.43;100.00
13968;BME280;39536;52.198;9.920;2024-01-11T00:34:41;102380.47;;;-5.48;100.00
13968;BME280;39536;52.198;9.920;2024-01-11T00:37:19;102384.59;;;-5.50;100.00
13968;BME280;39536;52.198;9.920;2024-01-11T00:39:55;102382.47;;;-5.58;100.00
13968;BME280;39536;52.198;9.920;2024-01-11T00:42:45;102382.09;;;-5.64;100.00
13968;BME280;39536;52.198;9.920;2024-01-11T00:45:32;102383.13;;;-5.73;100.00
13968;BME280;39536;52.198;9.920;2024-01-11T00:48:12;102369.56;;;-5.74;100.00
13968;BME280;39536;52.198;9.920;2024-01-11T00:50:48;102371.94;;;-5.64;100.00
13968;BME280;39536;52.198;9.920;2024-01-11T00:53:22;102372.13;;;-5.61;100.00
13968;BME280;39536;52.198;9.920;2024-01-11T00:56:19;102378.16;;;-5.59;100.00
13968;BME280;39536;52.198;9.920;2024-01-11T00:58:53;102365.19;;;-5.63;100.00
13968;BME280;39536;52.198;9.920;2024-01-11T01:01:20;102366.75;;;-5.65;100.00
13968;BME280;39536;52.198;9.920;2024-01-11T01:03:49;102356.91;;;-5.87;100.00
13968;BME280;39536;52.198;9.920;2024-01-11T01:06:16;102351.47;;;-5.93;100.00
13968;BME280;39536;52.198;9.920;2024-01-11T01:08:43;102361.91;;;-5.89;100.00
13968;BME280;39536;52.198;9.920;2024-01-11T01:11:09;102372.72;;;-5.78;100.00
13968;BME280;39536;52.198;9.920;2024-01-11T01:13:36;102367.63;;;-5.78;100.00
13968;BME280;39536;52.198;9.920;2024-01-11T01:16:04;102364.91;;;-5.81;100.00
13968;BME280;39536;52.198;9.920;2024-01-11T01:18:30;102383.66;;;-5.79;100.00
13968;BME280;39536;52.198;9.920;2024-01-11T01:20:57;102384.72;;;-5.89;100.00
13968;BME280;39536;52.198;9.920;2024-01-11T01:23:24;102374.03;;;-5.98;100.00
13968;BME280;39536;52.198;9.920;2024-01-11T01:25:50;102378.50;;;-5.94;100.00
13968;BME280;39536;52.198;9.920;2024-01-11T01:28:17;102367.13;;;-5.86;100.00
13968;BME280;39536;52.198;9.920;2024-01-11T01:30:43;102362.25;;;-5.83;100.00
13968;BME280;39536;52.198;9.920;2024-01-11T01:33:11;102366.78;;;-5.92;100.00
13968;BME280;39536;52.198;9.920;2024-01-11T01:35:38;102359.00;;;-5.95;100.00
13968;BME280;39536;52.198;9.920;2024-01-11T01:38:07;102353.50;;;-5.88;100.00
13968;BME280;39536;52.198;9.920;2024-01-11T01:40:34;102352.81;;;-5.85;100.00
13968;BME280;39536;52.198;9.920;2024-01-11T01:43:01;102351.91;;;-5.86;100.00
13968;BME280;39536;52.198;9.920;2024-01-11T01:45:29;102358.25;;;-5.92;100.00
13968;BME280;39536;52.198;9.920;2024-01-11T01:47:56;102365.03;;;-5.93;100.00
13968;BME280;39536;52.198;9.920;2024-01-11T01:50:24;102354.50;;;-5.99;100.00
13968;BME280;39536;52.198;9.920;2024-01-11T01:52:51;102354.59;;;-5.97;100.00
13968;BME280;39536;52.198;9.920;2024-01-11T01:55:19;102362.09;;;-5.99;100.00
13968;BME280;39536;52.198;9.920;2024-01-11T01:57:49;102371.06;;;-6.17;100.00
13968;BME280;39536;52.198;9.920;2024-01-11T02:00:18;102366.50;;;-6.10;100.00
13968;BME280;39536;52.198;9.920;2024-01-11T02:02:45;102361.44;;;-6.10;100.00
13968;BME280;39536;52.198;9.920;2024-01-11T02:05:13;102355.97;;;-6.16;100.00
13968;BME280;39536;52.198;9.920;2024-01-11T02:07:42;102351.97;;;-6.12;100.00
13968;BME280;39536;52.198;9.920;2024-01-11T02:13:13;102389.53;;;-5.93;100.00
13968;BME280;39536;52.198;9.920;2024-01-11T02:15:45;102384.13;;;-5.85;100.00
13968;BME280;39536;52.198;9.920;2024-01-11T02:18:12;102386.28;;;-5.91;100.00
13968;BME280;39536;52.198;9.920;2024-01-11T02:20:38;102389.44;;;-5.95;100.00
13968;BME280;39536;52.198;9.920;2024-01-11T02:23:09;102384.53;;;-5.92;100.00
13968;BME280;39536;52.198;9.920;2024-01-11T02:25:39;102379.06;;;-5.85;100.00
13968;BME280;39536;52.198;9.920;2024-01-11T02:28:09;102370.66;;;-5.84;100.00
13968;BME280;39536;52.198;9.920;2024-01-11T02:30:36;102367.13;;;-5.86;100.00
13968;BME280;39536;52.198;9.920;2024-01-11T02:33:04;102372.13;;;-5.87;100.00
13968;BME280;39536;52.198;9.920;2024-01-11T02:35:30;102363.88;;;-5.98;100.00
13968;BME280;39536;52.198;9.920;2024-01-11T02:37:58;102368.16;;;-5.97;100.00
13968;BME280;39536;52.198;9.920;2024-01-11T02:40:26;102369.22;;;-5.93;100.00
13968;BME280;39536;52.198;9.920;2024-01-11T02:42:54;102366.63;;;-5.95;100.00
13968;BME280;39536;52.198;9.920;2024-01-11T02:45:20;102359.69;;;-5.97;100.00
13968;BME280;39536;52.198;9.920;2024-01-11T02:47:47;102357.03;;;-6.12;100.00
13968;BME280;39536;52.198;9.920;2024-01-11T02:50:13;102351.09;;;-6.26;100.00
13968;BME280;39536;52.198;9.920;2024-01-11T02:52:40;102360.91;;;-6.31;100.00
13968;BME280;39536;52.198;9.920;2024-01-11T02:55:07;102363.66;;;-6.28;100.00
13968;BME280;39536;52.198;9.920;2024-01-11T02:57:34;102346.97;;;-6.24;100.00
13968;BME280;39536;52.198;9.920;2024-01-11T03:00:02;102338.88;;;-6.18;100.00
13968;BME280;39536;52.198;9.920;2024-01-11T03:02:29;102333.91;;;-6.17;100.00
13968;BME280;39536;52.198;9.920;2024-01-11T03:04:55;102339.16;;;-6.14;100.00
13968;BME280;39536;52.198;9.920;2024-01-11T03:07:25;102328.16;;;-6.14;100.00
13968;BME280;39536;52.198;9.920;2024-01-11T03:09:51;102326.59;;;-6.12;100.00
13968;BME280;39536;52.198;9.920;2024-01-11T03:12:18;102328.63;;;-6.20;100.00
13968;BME280;39536;52.198;9.920;2024-01-11T03:14:45;102329.63;;;-6.18;100.00
13968;BME280;39536;52.198;9.920;2024-01-11T03:17:16;102336.75;;;-6.12;100.00
13968;BME280;39536;52.198;9.920;2024-01-11T03:19:43;102335.56;;;-6.17;100.00
13968;BME280;39536;52.198;9.920;2024-01-11T03:22:12;102330.41;;;-6.19;100.00
13968;BME280;39536;52.198;9.920;2024-01-11T03:24:38;102337.44;;;-6.15;100.00
13968;BME280;39536;52.198;9.920;2024-01-11T03:27:06;102340.34;;;-6.09;100.00
13968;BME280;39536;52.198;9.920;2024-01-11T03:29:32;102348.34;;;-6.02;100.00
13968;BME280;39536;52.198;9.920;2024-01-11T03:31:59;102340.94;;;-5.99;100.00
13968;BME280;39536;52.198;9.920;2024-01-11T03:34:26;102343.56;;;-6.11;100.00
13968;BME280;39536;52.198;9.920;2024-01-11T03:36:53;102344.16;;;-6.15;100.00
13968;BME280;39536;52.198;9.920;2024-01-11T03:39:19;102336.06;;;-6.10;100.00
13968;BME280;39536;52.198;9.920;2024-01-11T03:41:46;102335.47;;;-6.19;100.00
13968;BME280;39536;52.198;9.920;2024-01-11T03:44:13;102332.81;;;-6.20;100.00
13968;BME280;39536;52.198;9.920;2024-01-11T03:46:39;102334.69;;;-6.18;100.00
13968;BME280;39536;52.198;9.920;2024-01-11T03:49:06;102327.94;;;-6.17;100.00
13968;BME280;39536;52.198;9.920;2024-01-11T03:51:37;102335.47;;;-6.19;100.00
13968;BME280;39536;52.198;9.920;2024-01-11T03:54:03;102339.16;;;-6.14;100.00
13968;BME280;39536;52.198;9.920;2024-01-11T03:56:30;102352.56;;;-6.16;100.00
13968;BME280;39536;52.198;9.920;2024-01-11T03:58:56;102346.69;;;-6.15;100.00
13968;BME280;39536;52.198;9.920;2024-01-11T04:01:23;102368.25;;;-6.09;100.00
13968;BME280;39536;52.198;9.920;2024-01-11T04:03:49;102364.16;;;-6.07;100.00
13968;BME280;39536;52.198;9.920;2024-01-11T04:06:20;102370.41;;;-6.01;100.00
13968;BME280;39536;52.198;9.920;2024-01-11T04:08:48;102366.69;;;-6.07;100.00
13968;BME280;39536;52.198;9.920;2024-01-11T04:11:15;102360.25;;;-6.01;100.00
13968;BME280;39536;52.198;9.920;2024-01-11T04:13:41;102362.31;;;-6.09;100.00
13968;BME280;39536;52.198;9.920;2024-01-11T04:16:08;102370.00;;;-6.08;100.00
13968;BME280;39536;52.198;9.920;2024-01-11T04:18:41;102366.09;;;-6.02;100.00
13968;BME280;39536;52.198;9.920;2024-01-11T04:21:07;102368.75;;;-6.01;100.00
13968;BME280;39536;52.198;9.920;2024-01-11T04:23:40;102354.97;;;-6.05;100.00
13968;BME280;39536;52.198;9.920;2024-01-11T04:26:08;102351.56;;;-6.05;100.00
13968;BME280;39536;52.198;9.920;2024-01-11T04:28:36;102351.28;;;-6.10;100.00
13968;BME280;39536;52.198;9.920;2024-01-11T04:31:03;102343.38;;;-6.14;100.00
13968;BME280;39536;52.198;9.920;2024-01-11T04:33:30;102335.09;;;-6.12;100.00
13968;BME280;39536;52.198;9.920;2024-01-11T04:35:56;102325.25;;;-6.07;100.00
13968;BME280;39536;52.198;9.920;2024-01-11T04:38:23;102336.34;;;-6.05;100.00
13968;BME280;39536;52.198;9.920;2024-01-11T04:40:49;102326.13;;;-6.07;100.00
13968;BME280;39536;52.198;9.920;2024-01-11T04:43:17;102309.84;;;-6.10;100.00
13968;BME280;39536;52.198;9.920;2024-01-11T04:45:44;102293.44;;;-6.02;100.00
13968;BME280;39536;52.198;9.920;2024-01-11T04:48:10;102300.84;;;-6.05;100.00
13968;BME280;39536;52.198;9.920;2024-01-11T04:50:37;102320.56;;;-6.01;100.00
13968;BME280;39536;52.198;9.920;2024-01-11T04:53:03;102329.72;;;-6.03;100.00
13968;BME280;39536;52.198;9.920;2024-01-11T04:55:33;102340.84;;;-6.01;100.00
13968;BME280;39536;52.198;9.920;2024-01-11T04:57:59;102346.22;;;-5.96;100.00
13968;BME280;39536;52.198;9.920;2024-01-11T05:00:27;102339.88;;;-6.03;100.00
13968;BME280;39536;52.198;9.920;2024-01-11T05:02:54;102350.88;;;-6.02;100.00
13968;BME280;39536;52.198;9.920;2024-01-11T05:05:21;102341.63;;;-6.02;100.00
13968;BME280;39536;52.198;9.920;2024-01-11T05:07:47;102345.34;;;-5.97;100.00
13968;BME280;39536;52.198;9.920;2024-01-11T05:10:14;102362.50;;;-6.06;100.00
13968;BME280;39536;52.198;9.920;2024-01-11T05:12:44;102359.84;;;-6.08;100.00
13968;BME280;39536;52.198;9.920;2024-01-11T05:15:11;102374.72;;;-6.00;100.00
13968;BME280;39536;52.198;9.920;2024-01-11T05:17:39;102373.72;;;-6.16;100.00
13968;BME280;39536;52.198;9.920;2024-01-11T05:20:06;102378.13;;;-6.13;100.00
13968;BME280;39536;52.198;9.920;2024-01-11T05:22:36;102396.06;;;-6.10;100.00
13968;BME280;39536;52.198;9.920;2024-01-11T05:25:03;102397.13;;;-6.07;100.00
13968;BME280;39536;52.198;9.920;2024-01-11T05:27:30;102384.94;;;-5.99;100.00
13968;BME280;39536;52.198;9.920;2024-01-11T05:29:56;102397.91;;;-6.08;100.00
13968;BME280;39536;52.198;9.920;2024-01-11T05:32:23;102399.56;;;-6.08;100.00
13968;BME280;39536;52.198;9.920;2024-01-11T05:34:51;102405.03;;;-6.02;100.00
13968;BME280;39536;52.198;9.920;2024-01-11T05:37:17;102402.88;;;-5.96;100.00
13968;BME280;39536;52.198;9.920;2024-01-11T05:39:46;102404.44;;;-6.11;100.00
13968;BME280;39536;52.198;9.920;2024-01-11T05:42:12;102397.00;;;-6.21;100.00
13968;BME280;39536;52.198;9.920;2024-01-11T05:44:39;102378.69;;;-6.17;100.00
13968;BME280;39536;52.198;9.920;2024-01-11T05:47:06;102375.56;;;-6.13;100.00
13968;BME280;39536;52.198;9.920;2024-01-11T05:49:32;102367.84;;;-6.15;100.00
13968;BME280;39536;52.198;9.920;2024-01-11T05:52:00;102362.84;;;-6.27;100.00
13968;BME280;39536;52.198;9.920;2024-01-11T05:54:27;102382.06;;;-6.30;100.00
13968;BME280;39536;52.198;9.920;2024-01-11T05:56:53;102365.78;;;-6.34;100.00
13968;BME280;39536;52.198;9.920;2024-01-11T05:59:30;102361.03;;;-6.29;100.00
13968;BME280;39536;52.198;9.920;2024-01-11T06:01:57;102374.38;;;-6.32;100.00
13968;BME280;39536;52.198;9.920;2024-01-11T06:04:25;102378.19;;;-6.25;100.00
13968;BME280;39536;52.198;9.920;2024-01-11T06:06:52;102379.34;;;-6.20;100.00
13968;BME280;39536;52.198;9.920;2024-01-11T06:09:20;102382.53;;;-6.36;100.00
13968;BME280;39536;52.198;9.920;2024-01-11T06:11:46;102374.94;;;-6.36;100.00
13968;BME280;39536;52.198;9.920;2024-01-11T06:14:13;102360.91;;;-6.44;100.00
13968;BME280;39536;52.198;9.920;2024-01-11T06:16:40;102342.38;;;-6.30;100.00
13968;BME280;39536;52.198;9.920;2024-01-11T06:19:07;102339.75;;;-6.18;100.00
13968;BME280;39536;52.198;9.920;2024-01-11T06:21:34;102357.91;;;-6.12;100.00
13968;BME280;39536;52.198;9.920;2024-01-11T06:24:01;102370.31;;;-6.03;100.00
13968;BME280;39536;52.198;9.920;2024-01-11T06:26:30;102367.66;;;-6.05;100.00
13968;BME280;39536;52.198;9.920;2024-01-11T06:28:59;102367.97;;;-6.00;100.00
13968;BME280;39536;52.198;9.920;2024-01-11T06:31:26;102367.84;;;-6.01;100.00
13968;BME280;39536;52.198;9.920;2024-01-11T06:33:53;102356.63;;;-6.05;100.00
13968;BME280;39536;52.198;9.920;2024-01-11T06:36:20;102345.13;;;-6.00;100.00
13968;BME280;39536;52.198;9.920;2024-01-11T06:38:49;102344.34;;;-5.99;100.00
13968;BME280;39536;52.198;9.920;2024-01-11T06:41:16;102363.56;;;-6.02;100.00
13968;BME280;39536;52.198;9.920;2024-01-11T06:43:43;102373.38;;;-6.34;100.00
13968;BME280;39536;52.198;9.920;2024-01-11T06:46:10;102366.97;;;-6.29;100.00
13968;BME280;39536;52.198;9.920;2024-01-11T06:48:37;102368.72;;;-6.28;100.00
13968;BME280;39536;52.198;9.920;2024-01-11T06:51:03;102363.63;;;-6.41;100.00
13968;BME280;39536;52.198;9.920;2024-01-11T06:53:33;102379.78;;;-6.52;100.00
13968;BME280;39536;52.198;9.920;2024-01-11T06:55:59;102374.13;;;-6.48;100.00
13968;BME280;39536;52.198;9.920;2024-01-11T06:58:26;102371.91;;;-6.43;100.00
13968;BME280;39536;52.198;9.920;2024-01-11T07:00:54;102367.75;;;-6.68;100.00
13968;BME280;39536;52.198;9.920;2024-01-11T07:03:20;102372.03;;;-6.67;100.00
13968;BME280;39536;52.198;9.920;2024-01-11T07:05:47;102362.31;;;-6.61;100.00
13968;BME280;39536;52.198;9.920;2024-01-11T07:08:14;102370.91;;;-6.45;100.00
13968;BME280;39536;52.198;9.920;2024-01-11T07:10:43;102371.88;;;-6.57;100.00
13968;BME280;39536;52.198;9.920;2024-01-11T07:13:10;102364.94;;;-6.59;100.00
13968;BME280;39536;52.198;9.920;2024-01-11T07:15:38;102362.56;;;-6.44;100.00
13968;BME280;39536;52.198;9.920;2024-01-11T07:18:06;102359.44;;;-6.40;100.00
13968;BME280;39536;52.198;9.920;2024-01-11T07:20:33;102350.19;;;-6.27;100.00
13968;BME280;39536;52.198;9.920;2024-01-11T07:23:00;102374.19;;;-6.08;100.00
13968;BME280;39536;52.198;9.920;2024-01-11T07:25:26;102384.25;;;-6.23;100.00
13968;BME280;39536;52.198;9.920;2024-01-11T07:27:53;102387.81;;;-6.33;100.00
13968;BME280;39536;52.198;9.920;2024-01-11T07:30:20;102377.31;;;-6.25;100.00
13968;BME280;39536;52.198;9.920;2024-01-11T07:32:49;102378.13;;;-6.13;100.00
13968;BME280;39536;52.198;9.920;2024-01-11T07:35:20;102398.00;;;-6.19;100.00
13968;BME280;39536;52.198;9.920;2024-01-11T07:37:47;102397.47;;;-6.40;100.00
13968;BME280;39536;52.198;9.920;2024-01-11T07:40:15;102403.81;;;-6.34;100.00
13968;BME280;39536;52.198;9.920;2024-01-11T07:42:42;102404.03;;;-6.17;100.00
13968;BME280;39536;52.198;9.920;2024-01-11T07:45:09;102423.63;;;-6.28;100.00
13968;BME280;39536;52.198;9.920;2024-01-11T07:47:36;102432.50;;;-6.35;100.00
13968;BME280;39536;52.198;9.920;2024-01-11T07:50:04;102440.84;;;-6.36;100.00
13968;BME280;39536;52.198;9.920;2024-01-11T07:52:33;102439.84;;;-6.26;100.00
13968;BME280;39536;52.198;9.920;2024-01-11T07:55:00;102458.25;;;-6.29;100.00
13968;BME280;39536;52.198;9.920;2024-01-11T07:57:31;102447.69;;;-6.35;100.00
13968;BME280;39536;52.198;9.920;2024-01-11T07:59:58;102447.75;;;-6.46;100.00
13968;BME280;39536;52.198;9.920;2024-01-11T08:02:26;102440.09;;;-6.35;100.00
13968;BME280;39536;52.198;9.920;2024-01-11T08:04:52;102430.69;;;-6.49;100.00
13968;BME280;39536;52.198;9.920;2024-01-11T08:07:19;102433.84;;;-6.27;100.00
13968;BME280;39536;52.198;9.920;2024-01-11T08:09:47;102431.97;;;-6.42;100.00
13968;BME280;39536;52.198;9.920;2024-01-11T08:12:14;102424.00;;;-6.35;100.00
13968;BME280;39536;52.198;9.920;2024-01-11T08:14:40;102433.75;;;-6.41;100.00
13968;BME280;39536;52.198;9.920;2024-01-11T08:17:08;102424.47;;;-6.41;100.00
13968;BME280;39536;52.198;9.920;2024-01-11T08:19:34;102428.34;;;-6.46;100.00
13968;BME280;39536;52.198;9.920;2024-01-11T08:22:01;102427.47;;;-6.46;100.00
13968;BME280;39536;52.198;9.920;2024-01-11T08:24:28;102434.16;;;-6.35;100.00
13968;BME280;39536;52.198;9.920;2024-01-11T08:27:03;102426.03;;;-6.30;100.00
13968;BME280;39536;52.198;9.920;2024-01-11T08:29:31;102420.78;;;-6.33;100.00
13968;BME280;39536;52.198;9.920;2024-01-11T08:31:57;102424.03;;;-6.22;100.00
13968;BME280;39536;52.198;9.920;2024-01-11T08:34:27;102431.97;;;-6.04;100.00
13968;BME280;39536;52.198;9.920;2024-01-11T08:36:53;102430.66;;;-6.11;100.00
13968;BME280;39536;52.198;9.920;2024-01-11T08:39:23;102436.06;;;-6.06;100.00
13968;BME280;39536;52.198;9.920;2024-01-11T08:41:52;102429.25;;;-6.07;100.00
13968;BME280;39536;52.198;9.920;2024-01-11T08:44:20;102432.16;;;-5.88;100.00
13968;BME280;39536;52.198;9.920;2024-01-11T08:46:47;102428.63;;;-5.90;100.00
13968;BME280;39536;52.198;9.920;2024-01-11T08:49:14;102413.19;;;-5.80;100.00
13968;BME280;39536;52.198;9.920;2024-01-11T08:51:40;102417.31;;;-5.82;100.00
13968;BME280;39536;52.198;9.920;2024-01-11T08:54:07;102416.44;;;-5.95;100.00
13968;BME280;39536;52.198;9.920;2024-01-11T08:56:34;102418.59;;;-6.01;100.00
13968;BME280;39536;52.198;9.920;2024-01-11T08:59:01;102410.97;;;-5.88;100.00
13968;BME280;39536;52.198;9.920;2024-01-11T09:01:29;102424.34;;;-5.77;100.00
13968;BME280;39536;52.198;9.920;2024-01-11T09:03:57;102428.25;;;-5.69;100.00
13968;BME280;39536;52.198;9.920;2024-01-11T09:06:24;102429.53;;;-5.63;100.00
13968;BME280;39536;52.198;9.920;2024-01-11T09:08:50;102431.75;;;-5.67;100.00
13968;BME280;39536;52.198;9.920;2024-01-11T09:11:17;102428.63;;;-5.76;100.00
13968;BME280;39536;52.198;9.920;2024-01-11T09:13:44;102437.31;;;-5.86;100.00
13968;BME280;39536;52.198;9.920;2024-01-11T09:16:14;102434.00;;;-5.85;100.00
13968;BME280;39536;52.198;9.920;2024-01-11T09:18:42;102422.66;;;-5.77;100.00
13968;BME280;39536;52.198;9.920;2024-01-11T09:21:09;102418.47;;;-5.76;100.00
13968;BME280;39536;52.198;9.920;2024-01-11T09:23:35;102417.41;;;-5.80;100.00
13968;BME280;39536;52.198;9.920;2024-01-11T09:26:02;102422.00;;;-5.74;100.00
13968;BME280;39536;52.198;9.920;2024-01-11T09:28:29;102421.59;;;-5.81;100.00
13968;BME280;39536;52.198;9.920;2024-01-11T09:30:55;102432.34;;;-5.45;100.00
13968;BME280;39536;52.198;9.920;2024-01-11T09:33:25;102439.06;;;-5.19;100.00
13968;BME280;39536;52.198;9.920;2024-01-11T09:35:53;102465.72;;;-5.12;100.00
13968;BME280;39536;52.198;9.920;2024-01-11T09:38:20;102466.16;;;-4.91;100.00
13968;BME280;39536;52.198;9.920;2024-01-11T09:40:47;102461.13;;;-5.04;100.00
13968;BME280;39536;52.198;9.920;2024-01-11T09:43:19;102452.50;;;-5.06;100.00
13968;BME280;39536;52.198;9.920;2024-01-11T09:45:45;102453.97;;;-5.10;100.00
13968;BME280;39536;52.198;9.920;2024-01-11T09:48:14;102465.09;;;-4.95;100.00
13968;BME280;39536;52.198;9.920;2024-01-11T09:50:41;102465.28;;;-4.92;100.00
13968;BME280;39536;52.198;9.920;2024-01-11T09:53:09;102433.69;;;-5.23;100.00
13968;BME280;39536;52.198;9.920;2024-01-11T09:55:36;102447.13;;;-4.98;100.00
13968;BME280;39536;52.198;9.920;2024-01-11T09:58:03;102436.03;;;-4.85;100.00
13968;BME280;39536;52.198;9.920;2024-01-11T10:00:30;102442.19;;;-4.81;100.00
13968;BME280;39536;52.198;9.920;2024-01-11T10:02:57;102437.53;;;-4.89;100.00
13968;BME280;39536;52.198;9.920;2024-01-11T10:05:23;102426.31;;;-4.77;100.00
13968;BME280;39536;52.198;9.920;2024-01-11T10:07:50;102436.03;;;-4.57;100.00
13968;BME280;39536;52.198;9.920;2024-01-11T10:10:18;102438.13;;;-4.50;100.00
13968;BME280;39536;52.198;9.920;2024-01-11T10:12:47;102434.41;;;-4.42;100.00
13968;BME280;39536;52.198;9.920;2024-01-11T10:15:14;102424.19;;;-4.56;100.00
13968;BME280;39536;52.198;9.920;2024-01-11T10:17:41;102405.25;;;-4.47;100.00
13968;BME280;39536;52.198;9.920;2024-01-11T10:20:10;102420.72;;;-4.29;100.00
13968;BME280;39536;52.198;9.920;2024-01-11T10:22:39;102409.03;;;-4.40;100.00
13968;BME280;39536;52.198;9.920;2024-01-11T10:25:10;102415.09;;;-4.38;100.00
13968;BME280;39536;52.198;9.920;2024-01-11T10:27:39;102401.63;;;-4.07;100.00
13968;BME280;39536;52.198;9.920;2024-01-11T10:30:08;102409.13;;;-4.24;100.00
13968;BME280;39536;52.198;9.920;2024-01-11T10:32:35;102399.31;;;-4.18;100.00
13968;BME280;39536;52.198;9.920;2024-01-11T10:35:02;102397.22;;;-3.95;100.00
13968;BME280;39536;52.198;9.920;2024-01-11T10:37:30;102396.34;;;-3.96;100.00
13968;BME280;39536;52.198;9.920;2024-01-11T10:39:58;102401.25;;;-3.99;100.00
13968;BME280;39536;52.198;9.920;2024-01-11T10:42:27;102406.34;;;-3.99;100.00
13968;BME280;39536;52.198;9.920;2024-01-11T10:44:59;102400.28;;;-3.86;100.00
13968;BME280;39536;52.198;9.920;2024-01-11T10:47:33;102408.69;;;-3.87;100.00
13968;BME280;39536;52.198;9.920;2024-01-11T10:50:03;102412.91;;;-3.73;100.00
13968;BME280;39536;52.198;9.920;2024-01-11T10:52:36;102412.38;;;-3.82;100.00
13968;BME280;39536;52.198;9.920;2024-01-11T10:55:08;102416.78;;;-4.09;100.00
13968;BME280;39536;52.198;9.920;2024-01-11T10:57:36;102418.97;;;-4.15;100.00
13968;BME280;39536;52.198;9.920;2024-01-11T11:00:05;102417.81;;;-4.05;100.00
13968;BME280;39536;52.198;9.920;2024-01-11T11:02:37;102415.81;;;-3.96;100.00
13968;BME280;39536;52.198;9.920;2024-01-11T11:05:07;102414.06;;;-3.82;100.00
13968;BME280;39536;52.198;9.920;2024-01-11T11:07:35;102414.22;;;-3.64;100.00
13968;BME280;39536;52.198;9.920;2024-01-11T11:10:03;102404.25;;;-3.60;100.00
13968;BME280;39536;52.198;9.920;2024-01-11T11:12:32;102403.81;;;-3.53;100.00
13968;BME280;39536;52.198;9.920;2024-01-11T11:15:01;102408.47;;;-3.45;100.00
13968;BME280;39536;52.198;9.920;2024-01-11T11:17:36;102405.09;;;-3.76;100.00
13968;BME280;39536;52.198;9.920;2024-01-11T11:20:03;102412.59;;;-3.62;100.00
13968;BME280;39536;52.198;9.920;2024-01-11T11:22:33;102405.19;;;-3.43;100.00
13968;BME280;39536;52.198;9.920;2024-01-11T11:25:03;102414.56;;;-3.27;100.00
13968;BME280;39536;52.198;9.920;2024-01-11T11:27:32;102407.78;;;-3.27;100.00
13968;BME280;39536;52.198;9.920;2024-01-11T11:29:58;102410.06;;;-3.31;100.00
13968;BME280;39536;52.198;9.920;2024-01-11T11:32:36;102407.19;;;-3.37;100.00
13968;BME280;39536;52.198;9.920;2024-01-11T11:35:04;102400.38;;;-3.22;100.00
13968;BME280;39536;52.198;9.920;2024-01-11T11:37:30;102397.13;;;-3.03;100.00
13968;BME280;39536;52.198;9.920;2024-01-11T11:39:58;102397.69;;;-2.76;100.00
13968;BME280;39536;52.198;9.920;2024-01-11T11:42:24;102394.19;;;-2.94;100.00
13968;BME280;39536;52.198;9.920;2024-01-11T11:44:51;102392.59;;;-2.76;100.00
13968;BME280;39536;52.198;9.920;2024-01-11T11:47:19;102383.91;;;-2.80;100.00
13968;BME280;39536;52.198;9.920;2024-01-11T11:50:03;102371.06;;;-2.48;100.00
13968;BME280;39536;52.198;9.920;2024-01-11T11:52:32;102355.84;;;-2.29;100.00
13968;BME280;39536;52.198;9.920;2024-01-11T11:54:59;102356.34;;;-2.36;100.00
13968;BME280;39536;52.198;9.920;2024-01-11T11:57:26;102340.81;;;-2.41;100.00
13968;BME280;39536;52.198;9.920;2024-01-11T11:59:54;102332.88;;;-2.29;100.00
13968;BME280;39536;52.198;9.920;2024-01-11T12:02:23;102328.44;;;-2.15;100.00
13968;BME280;39536;52.198;9.920;2024-01-11T12:04:50;102336.31;;;-2.11;100.00
13968;BME280;39536;52.198;9.920;2024-01-11T12:07:19;102341.06;;;-2.00;100.00
13968;BME280;39536;52.198;9.920;2024-01-11T12:09:46;102340.25;;;-1.81;100.00
13968;BME280;39536;52.198;9.920;2024-01-11T12:12:13;102333.03;;;-1.72;100.00
13968;BME280;39536;52.198;9.920;2024-01-11T12:14:41;102325.44;;;-1.71;100.00
13968;BME280;39536;52.198;9.920;2024-01-11T12:17:08;102322.88;;;-1.71;100.00
13968;BME280;39536;52.198;9.920;2024-01-11T12:19:35;102310.84;;;-1.91;100.00
13968;BME280;39536;52.198;9.920;2024-01-11T12:22:02;102300.25;;;-1.81;100.00
13968;BME280;39536;52.198;9.920;2024-01-11T12:24:30;102308.47;;;-1.69;100.00
13968;BME280;39536;52.198;9.920;2024-01-11T12:26:59;102309.16;;;-1.73;100.00
13968;BME280;39536;52.198;9.920;2024-01-11T12:29:28;102299.50;;;-1.60;100.00
13968;BME280;39536;52.198;9.920;2024-01-11T12:31:58;102299.91;;;-1.71;100.00
13968;BME280;39536;52.198;9.920;2024-01-11T12:34:25;102299.09;;;-1.70;100.00
13968;BME280;39536;52.198;9.920;2024-01-11T12:36:52;102297.75;;;-1.61;100.00
13968;BME280;39536;52.198;9.920;2024-01-11T12:39:20;102305.56;;;-1.58;100.00
13968;BME280;39536;52.198;9.920;2024-01-11T12:41:50;102306.78;;;-1.50;100.00
13968;BME280;39536;52.198;9.920;2024-01-11T12:44:21;102315.13;;;-1.35;100.00
13968;BME280;39536;52.198;9.920;2024-01-11T12:46:52;102312.44;;;-1.38;100.00
13968;BME280;39536;52.198;9.920;2024-01-11T12:49:19;102309.59;;;-1.44;100.00
13968;BME280;39536;52.198;9.920;2024-01-11T12:51:45;102327.59;;;-1.60;100.00